createdAt,value
2018-02-07T00:01:49.514Z,89.00
2018-02-07T00:04:20.771Z,89.10
2018-02-07T00:06:57.275Z,89.10
2018-02-07T00:09:25.926Z,88.80
2018-02-07T00:12:00.774Z,88.90
2018-02-07T00:14:28.812Z,89.00
2018-02-07T00:16:58.546Z,89.20
2018-02-07T00:19:42.038Z,90.10
2018-02-07T00:22:11.292Z,90.10
2018-02-07T00:24:44.678Z,90.20
2018-02-07T00:27:20.684Z,90.00
2018-02-07T00:29:52.370Z,90.00
2018-02-07T00:32:25.299Z,89.70
2018-02-07T00:34:54.294Z,89.30
2018-02-07T00:37:24.162Z,88.80
2018-02-07T00:39:53.578Z,88.70
2018-02-07T00:42:25.454Z,89.00
2018-02-07T00:44:54.682Z,89.20
2018-02-07T00:47:22.962Z,89.00
2018-02-07T00:49:53.002Z,88.00
2018-02-07T00:52:23.946Z,88.00
2018-02-07T00:54:58.506Z,87.90
2018-02-07T00:57:32.350Z,88.10
2018-02-07T01:00:02.310Z,88.00
2018-02-07T01:02:37.460Z,87.70
2018-02-07T01:05:07.710Z,88.00
2018-02-07T01:07:40.990Z,88.30
2018-02-07T01:10:10.538Z,88.80
2018-02-07T01:15:15.909Z,89.10
2018-02-07T01:17:46.773Z,89.50
2018-02-07T01:22:48.258Z,89.90
2018-02-07T01:25:17.490Z,89.80
2018-02-07T01:27:50.578Z,89.70
2018-02-07T01:30:26.502Z,89.40
2018-02-07T01:32:55.734Z,90.00
2018-02-07T01:35:30.486Z,90.20
2018-02-07T01:37:58.762Z,90.10
2018-02-07T01:40:40.814Z,90.20
2018-02-07T01:43:09.095Z,90.20
2018-02-07T01:45:38.074Z,90.20
2018-02-07T01:48:14.940Z,90.10
2018-02-07T01:50:53.849Z,90.10
2018-02-07T01:53:23.878Z,90.00
2018-02-07T01:55:54.262Z,90.10
2018-02-07T01:58:29.502Z,90.20
2018-02-07T02:00:59.530Z,90.60
2018-02-07T02:03:28.542Z,90.30
2018-02-07T02:05:58.362Z,90.30
2018-02-07T02:08:26.447Z,90.20
2018-02-07T02:10:58.998Z,90.30
2018-02-07T02:13:28.014Z,90.30
2018-02-07T02:15:57.970Z,90.30
2018-02-07T02:18:33.289Z,90.30
2018-02-07T02:21:03.353Z,90.50
2018-02-07T02:23:34.097Z,90.40
2018-02-07T02:26:02.198Z,90.40
2018-02-07T02:28:30.258Z,90.60
2018-02-07T02:30:58.666Z,90.70
2018-02-07T02:33:28.734Z,90.80
2018-02-07T02:36:13.178Z,91.20
2018-02-07T02:38:42.010Z,91.20
2018-02-07T02:41:11.074Z,91.20
2018-02-07T02:43:39.182Z,91.40
2018-02-07T02:46:07.225Z,91.50
2018-02-07T02:48:35.284Z,91.70
2018-02-07T02:51:21.298Z,92.00
2018-02-07T02:53:49.358Z,92.00
2018-02-07T02:56:29.154Z,92.00
2018-02-07T02:58:58.040Z,91.80
2018-02-07T03:01:33.486Z,91.80
2018-02-07T03:04:06.389Z,91.90
2018-02-07T03:06:35.193Z,92.00
2018-02-07T03:09:05.110Z,91.90
2018-02-07T03:11:33.945Z,92.00
2018-02-07T03:14:05.794Z,92.00
2018-02-07T03:16:34.873Z,91.90
2018-02-07T03:19:03.950Z,91.70
2018-02-07T03:21:32.031Z,91.70
2018-02-07T03:24:02.810Z,91.40
2018-02-07T03:26:30.997Z,91.30
2018-02-07T03:28:59.022Z,91.10
2018-02-07T03:31:29.038Z,90.90
2018-02-07T03:33:57.874Z,90.60
2018-02-07T03:36:26.873Z,90.50
2018-02-07T03:38:59.393Z,90.50
2018-02-07T03:41:31.117Z,90.40
2018-02-07T03:43:59.961Z,90.40
2018-02-07T03:46:29.057Z,90.30
2018-02-07T03:48:58.225Z,90.40
2018-02-07T03:51:26.275Z,90.40
2018-02-07T03:53:55.097Z,90.40
2018-02-07T03:56:32.429Z,90.50
2018-02-07T03:59:00.449Z,90.50
2018-02-07T04:01:32.953Z,90.50
2018-02-07T04:04:06.811Z,90.60
2018-02-07T04:06:36.837Z,90.70
2018-02-07T04:09:05.957Z,90.70
2018-02-07T04:11:39.593Z,90.80
2018-02-07T04:14:15.265Z,91.00
2018-02-07T04:16:46.029Z,90.90
2018-02-07T04:19:19.389Z,90.90
2018-02-07T04:21:49.421Z,90.90
2018-02-07T04:24:17.473Z,91.00
2018-02-07T04:26:47.293Z,91.20
2018-02-07T04:29:19.761Z,91.10
2018-02-07T04:31:52.417Z,91.20
2018-02-07T04:34:36.497Z,91.40
2018-02-07T04:37:10.109Z,91.40
2018-02-07T04:39:42.021Z,91.50
2018-02-07T04:42:11.002Z,91.60
2018-02-07T04:44:39.033Z,91.60
2018-02-07T04:47:22.793Z,91.80
2018-02-07T04:49:50.845Z,91.80
2018-02-07T04:52:20.812Z,91.90
2018-02-07T04:54:51.543Z,92.40
2018-02-07T04:57:23.313Z,92.20
2018-02-07T04:59:52.213Z,92.70
2018-02-07T05:02:22.000Z,92.70
2018-02-07T05:04:50.053Z,92.70
2018-02-07T05:07:18.093Z,92.70
2018-02-07T05:09:48.053Z,93.10
2018-02-07T05:12:25.917Z,93.00
2018-02-07T05:14:59.877Z,93.10
2018-02-07T05:17:43.829Z,93.20
2018-02-07T05:20:24.697Z,93.20
2018-02-07T05:22:57.248Z,93.00
2018-02-07T05:25:30.964Z,92.90
2018-02-07T05:28:06.461Z,92.90
2018-02-07T05:30:47.205Z,92.90
2018-02-07T05:33:16.149Z,93.00
2018-02-07T05:35:44.186Z,93.00
2018-02-07T05:38:15.876Z,93.00
2018-02-07T05:40:44.877Z,93.00
2018-02-07T05:43:18.332Z,93.10
2018-02-07T05:45:51.036Z,93.00
2018-02-07T05:48:23.030Z,93.20
2018-02-07T05:50:51.821Z,93.40
2018-02-07T05:53:33.233Z,93.80
2018-02-07T05:56:01.277Z,93.80
2018-02-07T05:58:32.096Z,94.30
2018-02-07T06:01:00.143Z,94.30
2018-02-07T06:03:31.896Z,94.40
2018-02-07T06:06:14.153Z,94.20
2018-02-07T06:08:42.168Z,94.20
2018-02-07T06:11:16.097Z,94.10
2018-02-07T06:13:55.499Z,94.10
2018-02-07T06:16:26.216Z,94.10
2018-02-07T06:18:56.177Z,94.10
2018-02-07T06:21:30.096Z,94.30
2018-02-07T06:23:58.900Z,94.80
2018-02-07T06:26:32.516Z,94.80
2018-02-07T06:29:02.488Z,94.80
2018-02-07T06:31:32.544Z,94.80
2018-02-07T06:34:01.506Z,94.80
2018-02-07T06:36:29.544Z,94.80
2018-02-07T06:39:03.264Z,94.90
2018-02-07T06:41:38.800Z,94.80
2018-02-07T06:44:07.816Z,94.80
2018-02-07T06:46:40.800Z,95.30
2018-02-07T06:49:09.796Z,95.00
2018-02-07T06:51:38.600Z,95.00
2018-02-07T06:54:07.388Z,94.90
2018-02-07T06:56:37.372Z,94.90
2018-02-07T06:59:11.652Z,94.90
2018-02-07T07:01:42.736Z,95.00
2018-02-07T07:04:11.745Z,95.00
2018-02-07T07:06:53.564Z,95.00
2018-02-07T07:09:25.264Z,95.00
2018-02-07T07:11:53.328Z,94.90
2018-02-07T07:14:22.332Z,94.80
2018-02-07T07:16:50.364Z,94.80
2018-02-07T07:19:26.332Z,94.50
2018-02-07T07:22:02.008Z,94.20
2018-02-07T07:24:36.952Z,93.40
2018-02-07T07:27:07.668Z,92.80
2018-02-07T07:29:39.024Z,92.80
2018-02-07T07:32:07.094Z,92.70
2018-02-07T07:34:35.107Z,92.50
2018-02-07T07:37:11.628Z,91.90
2018-02-07T07:39:39.664Z,91.90
2018-02-07T07:42:13.332Z,91.50
2018-02-07T07:44:43.104Z,91.20
2018-02-07T07:47:16.868Z,91.10
2018-02-07T07:49:44.896Z,90.90
2018-02-07T07:52:20.516Z,90.70
2018-02-07T07:54:48.543Z,90.40
2018-02-07T07:57:20.408Z,90.70
2018-02-07T07:59:50.372Z,90.40
2018-02-07T08:02:21.961Z,90.40
2018-02-07T08:04:50.756Z,90.00
2018-02-07T08:07:19.551Z,90.10
2018-02-07T08:09:55.020Z,90.00
2018-02-07T08:12:33.077Z,90.30
2018-02-07T08:15:05.028Z,89.10
2018-02-07T08:17:36.768Z,89.60
2018-02-07T08:20:04.796Z,89.40
2018-02-07T08:22:36.560Z,89.20
2018-02-07T08:25:04.608Z,88.70
2018-02-07T08:27:46.498Z,89.60
2018-02-07T08:30:17.183Z,89.00
2018-02-07T08:32:45.204Z,89.00
2018-02-07T08:35:13.231Z,89.20
2018-02-07T08:37:43.159Z,88.60
2018-02-07T08:40:14.595Z,89.50
2018-02-07T08:42:46.371Z,88.70
2018-02-07T08:45:15.351Z,88.50
2018-02-07T08:47:44.267Z,88.00
2018-02-07T08:50:13.055Z,88.80
2018-02-07T08:52:45.040Z,88.70
2018-02-07T08:55:22.759Z,88.80
2018-02-07T08:58:07.531Z,89.80
2018-02-07T09:00:35.555Z,89.40
2018-02-07T09:03:03.587Z,89.80
2018-02-07T09:05:35.355Z,90.00
2018-02-07T09:08:06.043Z,89.70
2018-02-07T09:10:35.987Z,90.00
2018-02-07T09:13:04.016Z,90.00
2018-02-07T09:15:35.819Z,88.60
2018-02-07T09:18:03.847Z,89.40
2018-02-07T09:20:35.751Z,89.40
2018-02-07T09:23:05.672Z,89.70
2018-02-07T09:25:34.467Z,89.70
2018-02-07T09:28:03.280Z,88.90
2018-02-07T09:30:32.219Z,88.80
2018-02-07T09:33:02.158Z,88.40
2018-02-07T09:35:34.811Z,87.40
2018-02-07T09:38:04.735Z,87.30
2018-02-07T09:40:32.759Z,87.20
2018-02-07T09:43:00.787Z,87.20
2018-02-07T09:45:29.583Z,88.30
2018-02-07T09:47:59.362Z,88.60
2018-02-07T09:50:38.527Z,88.00
2018-02-07T09:53:07.315Z,87.60
2018-02-07T09:55:40.803Z,85.80
2018-02-07T09:58:09.599Z,85.40
2018-02-07T10:00:38.387Z,84.10
2018-02-07T10:03:07.176Z,85.60
2018-02-07T10:05:35.988Z,86.20
2018-02-07T10:08:03.995Z,86.10
2018-02-07T10:10:32.023Z,85.90
2018-02-07T10:13:13.059Z,84.80
2018-02-07T10:15:42.979Z,84.10
2018-02-07T10:18:19.095Z,83.20
2018-02-07T10:20:50.471Z,84.40
2018-02-07T10:23:30.142Z,83.20
2018-02-07T10:25:59.099Z,82.90
2018-02-07T10:28:35.208Z,83.10
2018-02-07T10:31:05.171Z,82.80
2018-02-07T10:33:38.447Z,83.80
2018-02-07T10:36:06.483Z,83.60
2018-02-07T10:38:38.399Z,82.60
2018-02-07T10:41:06.519Z,81.90
2018-02-07T10:43:40.055Z,82.10
2018-02-07T10:46:12.738Z,82.10
2018-02-07T10:48:41.672Z,80.50
2018-02-07T10:51:10.459Z,80.50
2018-02-07T10:53:43.399Z,80.90
2018-02-07T10:59:11.150Z,80.00
2018-02-07T11:01:39.175Z,79.90
2018-02-07T11:04:07.195Z,80.90
2018-02-07T11:06:38.888Z,81.10
2018-02-07T11:09:10.750Z,80.40
2018-02-07T11:11:47.386Z,80.30
2018-02-07T11:14:19.351Z,79.80
2018-02-07T11:16:50.311Z,79.50
2018-02-07T11:19:18.327Z,80.90
2018-02-07T11:21:46.375Z,81.20
2018-02-07T11:24:27.803Z,81.10
2018-02-07T11:27:17.167Z,80.90
2018-02-07T11:29:49.167Z,81.70
2018-02-07T11:32:17.203Z,78.70
2018-02-07T11:34:49.715Z,77.60
2018-02-07T11:37:34.834Z,77.40
2018-02-07T11:40:04.759Z,76.80
2018-02-07T11:42:38.887Z,76.70
2018-02-07T11:45:12.103Z,76.60
2018-02-07T11:47:47.639Z,77.90
2018-02-07T11:50:16.691Z,78.60
2018-02-07T11:52:49.018Z,79.70
2018-02-07T11:55:17.042Z,78.20
2018-02-07T11:57:49.167Z,78.60
2018-02-07T12:00:22.863Z,79.20
2018-02-07T12:02:50.895Z,77.70
2018-02-07T12:05:24.826Z,79.40
2018-02-07T12:07:54.879Z,79.40
2018-02-07T12:10:27.702Z,78.80
2018-02-07T12:12:56.639Z,78.80
2018-02-07T12:15:35.058Z,79.30
2018-02-07T12:18:03.862Z,78.10
2018-02-07T12:20:31.898Z,78.00
2018-02-07T12:23:00.814Z,77.70
2018-02-07T12:25:36.402Z,76.90
2018-02-07T12:28:16.999Z,76.80
2018-02-07T12:30:45.027Z,75.80
2018-02-07T12:33:13.965Z,76.30
2018-02-07T12:35:48.130Z,75.90
2018-02-07T12:38:21.938Z,74.70
2018-02-07T12:40:49.978Z,73.60
2018-02-07T12:43:21.118Z,73.70
2018-02-07T12:45:50.050Z,73.70
2018-02-07T12:48:18.086Z,72.30
2018-02-07T12:50:47.034Z,73.40
2018-02-07T12:53:15.059Z,75.80
2018-02-07T12:55:49.482Z,75.30
2018-02-07T12:58:17.525Z,75.20
2018-02-07T13:00:46.310Z,73.90
2018-02-07T13:03:25.766Z,73.00
2018-02-07T13:06:04.026Z,73.00
2018-02-07T13:08:32.087Z,73.80
2018-02-07T13:11:03.870Z,74.10
2018-02-07T13:13:32.850Z,73.30
2018-02-07T13:16:00.874Z,72.70
2018-02-07T13:18:35.942Z,72.90
2018-02-07T13:21:03.970Z,71.70
2018-02-07T13:23:31.997Z,70.90
2018-02-07T13:26:00.027Z,72.10
2018-02-07T13:28:31.746Z,73.60
2018-02-07T13:31:02.470Z,74.60
2018-02-07T13:33:36.366Z,74.50
2018-02-07T13:36:08.221Z,74.50
2018-02-07T13:38:37.210Z,75.00
2018-02-07T13:41:10.670Z,75.90
2018-02-07T13:43:38.701Z,74.80
2018-02-07T13:46:09.438Z,75.90
2018-02-07T13:48:40.134Z,76.60
2018-02-07T13:51:10.161Z,76.60
2018-02-07T13:53:38.214Z,76.70
2018-02-07T13:56:10.198Z,76.20
2018-02-07T13:58:39.229Z,76.50
2018-02-07T14:01:09.914Z,76.60
2018-02-07T14:03:37.958Z,76.70
2018-02-07T14:06:09.794Z,76.50
2018-02-07T14:08:37.818Z,76.30
2018-02-07T14:13:37.694Z,76.50
2018-02-07T14:16:05.709Z,77.10
2018-02-07T14:18:37.182Z,77.90
2018-02-07T14:21:22.786Z,77.90
2018-02-07T14:23:50.822Z,77.70
2018-02-07T14:26:18.854Z,77.10
2018-02-07T14:28:48.790Z,76.90
2018-02-07T14:31:17.722Z,78.40
2018-02-07T14:33:46.510Z,80.10
2018-02-07T14:36:17.230Z,80.00
2018-02-07T14:38:45.350Z,80.00
2018-02-07T14:41:17.905Z,79.20
2018-02-07T14:43:46.857Z,78.80
2018-02-07T14:46:18.714Z,78.50
2018-02-07T14:48:58.050Z,77.20
2018-02-07T14:51:27.097Z,76.90
2018-02-07T14:54:18.925Z,76.60
2018-02-07T14:56:49.621Z,78.70
2018-02-07T14:59:18.441Z,77.80
2018-02-07T15:01:48.415Z,77.70
2018-02-07T15:04:23.925Z,78.00
2018-02-07T15:06:57.241Z,77.90
2018-02-07T15:09:30.209Z,78.40
2018-02-07T15:11:59.122Z,77.90
2018-02-07T15:14:27.145Z,78.30
2018-02-07T15:16:55.170Z,78.60
2018-02-07T15:19:23.949Z,80.20
2018-02-07T15:21:51.978Z,79.80
2018-02-07T15:24:20.897Z,80.00
2018-02-07T15:26:48.917Z,79.30
2018-02-07T15:29:29.677Z,79.90
2018-02-07T15:31:57.701Z,80.00
2018-02-07T15:34:31.457Z,81.10
2018-02-07T15:37:01.137Z,80.80
2018-02-07T15:39:29.925Z,81.40
2018-02-07T15:42:01.773Z,82.10
2018-02-07T15:44:37.289Z,81.40
2018-02-07T15:47:07.193Z,82.10
2018-02-07T15:49:38.259Z,82.20
2018-02-07T15:52:10.141Z,82.70
2018-02-07T15:54:39.829Z,82.30
2018-02-07T15:57:07.861Z,82.20
2018-02-07T15:59:39.753Z,82.80
2018-02-07T16:02:07.785Z,83.00
2018-02-07T16:04:36.785Z,83.20
2018-02-07T16:07:17.449Z,84.00
2018-02-07T16:09:48.746Z,83.90
2018-02-07T16:12:16.769Z,83.50
2018-02-07T16:14:52.777Z,84.50
2018-02-07T16:17:27.153Z,84.50
2018-02-07T16:19:56.076Z,85.40
2018-02-07T16:22:30.264Z,84.60
2018-02-07T16:25:10.845Z,85.00
2018-02-07T16:27:38.885Z,85.10
2018-02-07T16:30:07.905Z,85.50
2018-02-07T16:32:37.841Z,85.50
2018-02-07T16:35:11.213Z,85.70
2018-02-07T16:37:44.905Z,86.00
2018-02-07T16:40:13.949Z,86.20
2018-02-07T16:42:42.761Z,86.80
2018-02-07T16:45:10.777Z,86.70
2018-02-07T16:47:38.809Z,87.20
2018-02-07T16:50:06.849Z,87.50
2018-02-07T16:52:38.789Z,87.70
2018-02-07T16:55:12.473Z,87.70
2018-02-07T16:57:40.511Z,87.60
2018-02-07T17:00:13.125Z,87.30
2018-02-07T17:02:48.644Z,86.90
2018-02-07T17:05:36.557Z,87.10
2018-02-07T17:08:06.480Z,86.80
2018-02-07T17:10:35.529Z,86.80
2018-02-07T17:13:03.550Z,86.80
2018-02-07T17:15:36.265Z,87.10
2018-02-07T17:18:21.577Z,86.90
2018-02-07T17:20:50.528Z,87.10
2018-02-07T17:23:23.880Z,87.40
2018-02-07T17:25:51.914Z,87.70
2018-02-07T17:28:21.604Z,87.80
2018-02-07T17:30:49.629Z,87.70
2018-02-07T17:33:17.673Z,88.10
2018-02-07T17:35:46.482Z,88.00
2018-02-07T17:38:14.529Z,88.00
2018-02-07T17:40:44.309Z,88.20
2018-02-07T17:43:13.249Z,88.00
2018-02-07T17:45:43.228Z,88.20
2018-02-07T17:48:11.261Z,88.20
2018-02-07T17:50:40.065Z,88.20
2018-02-07T17:53:09.013Z,88.10
2018-02-07T17:55:37.053Z,88.20
2018-02-07T17:58:10.609Z,88.20
2018-02-07T18:00:38.665Z,88.20
2018-02-07T18:03:07.860Z,88.30
2018-02-07T18:05:37.070Z,88.20
2018-02-07T18:08:05.520Z,88.50
2018-02-07T18:10:33.805Z,88.80
2018-02-07T18:13:01.801Z,89.10
2018-02-07T18:15:31.332Z,88.50
2018-02-07T18:17:59.364Z,88.10
2018-02-07T18:20:35.989Z,88.20
2018-02-07T18:23:08.604Z,89.40
2018-02-07T18:25:47.652Z,88.60
2018-02-07T18:28:16.588Z,88.80
2018-02-07T18:30:44.616Z,88.30
2018-02-07T18:33:16.296Z,88.30
2018-02-07T18:35:45.252Z,89.20
2018-02-07T18:38:17.731Z,88.50
2018-02-07T18:40:52.148Z,88.60
2018-02-07T18:43:33.712Z,88.40
2018-02-07T18:46:03.696Z,88.20
2018-02-07T18:48:32.668Z,88.50
2018-02-07T18:51:11.544Z,88.30
2018-02-07T18:53:42.796Z,87.60
2018-02-07T18:56:21.252Z,87.80
2018-02-07T18:59:04.652Z,87.70
2018-02-07T19:01:37.072Z,88.00
2018-02-07T19:04:07.072Z,87.90
2018-02-07T19:06:47.632Z,87.80
2018-02-07T19:09:17.692Z,87.80
2018-02-07T19:11:52.148Z,87.70
2018-02-07T19:14:21.223Z,87.60
2018-02-07T19:16:49.212Z,88.00
2018-02-07T19:19:18.164Z,87.90
2018-02-07T19:21:47.952Z,88.10
2018-02-07T19:24:26.020Z,87.90
2018-02-07T19:27:05.760Z,88.10
2018-02-07T19:29:33.804Z,88.10
2018-02-07T19:32:01.836Z,88.20
2018-02-07T19:34:30.056Z,88.40
2018-02-07T19:37:07.064Z,88.80
2018-02-07T19:39:37.160Z,88.70
2018-02-07T19:42:09.984Z,88.90
2018-02-07T19:44:43.700Z,89.40
2018-02-07T19:47:11.816Z,89.30
2018-02-07T19:49:39.855Z,88.90
2018-02-07T19:52:09.896Z,89.10
2018-02-07T19:54:44.251Z,88.90
2018-02-07T19:57:15.303Z,89.00
2018-02-07T19:59:43.355Z,89.20
2018-02-07T20:02:17.584Z,89.50
2018-02-07T20:04:46.628Z,89.60
2018-02-07T20:07:20.640Z,89.80
2018-02-07T20:09:49.472Z,89.70
2018-02-07T20:12:19.184Z,89.70
2018-02-07T20:14:48.020Z,90.00
2018-02-07T20:17:18.284Z,89.80
2018-02-07T20:19:47.056Z,89.80
2018-02-07T20:22:19.048Z,90.10
2018-02-07T20:24:48.396Z,90.00
2018-02-07T20:27:26.319Z,90.00
2018-02-07T20:29:55.412Z,90.00
2018-02-07T20:32:23.514Z,90.00
2018-02-07T20:34:54.911Z,90.00
2018-02-07T20:37:23.006Z,90.00
2018-02-07T20:39:52.981Z,90.00
2018-02-07T20:42:21.840Z,90.00
2018-02-07T20:44:50.860Z,90.00
2018-02-07T20:47:18.891Z,90.00
2018-02-07T20:49:48.151Z,89.90
2018-02-07T20:52:28.008Z,90.00
2018-02-07T20:55:00.076Z,90.10
2018-02-07T20:57:34.675Z,90.10
2018-02-07T21:00:08.591Z,90.00
2018-02-07T21:02:36.672Z,90.00
2018-02-07T21:05:08.068Z,90.10
2018-02-07T21:07:37.076Z,90.20
2018-02-07T21:10:06.671Z,90.30
2018-02-07T21:12:39.167Z,90.30
2018-02-07T21:15:08.971Z,90.30
2018-02-07T21:17:38.839Z,90.50
2018-02-07T21:20:12.543Z,90.30
2018-02-07T21:22:44.323Z,90.40
2018-02-07T21:25:12.423Z,90.40
2018-02-07T21:27:42.695Z,90.50
2018-02-07T21:30:13.041Z,90.60
2018-02-07T21:32:42.303Z,90.60
2018-02-07T21:35:11.971Z,90.70
2018-02-07T21:37:40.371Z,90.70
2018-02-07T21:40:12.667Z,90.80
2018-02-07T21:42:43.511Z,90.70
2018-02-07T21:45:12.619Z,90.70
2018-02-07T21:47:47.231Z,90.80
2018-02-07T21:50:15.599Z,90.80
2018-02-07T21:52:45.719Z,90.80
2018-02-07T21:55:20.083Z,91.10
2018-02-07T21:57:48.191Z,91.10
2018-02-07T22:00:17.411Z,91.30
2018-02-07T22:02:48.835Z,91.20
2018-02-07T22:05:22.203Z,91.30
2018-02-07T22:07:54.255Z,91.30
2018-02-07T22:10:26.003Z,91.20
2018-02-07T22:13:04.319Z,91.20
2018-02-07T22:15:38.440Z,91.20
2018-02-07T22:18:12.027Z,91.40
2018-02-07T22:20:43.475Z,91.20
2018-02-07T22:23:12.483Z,91.30
2018-02-07T22:25:40.567Z,91.30
2018-02-07T22:28:25.259Z,91.50
2018-02-07T22:30:58.011Z,91.30
2018-02-07T22:33:27.775Z,91.30
2018-02-07T22:36:02.463Z,91.30
2018-02-07T22:38:35.446Z,91.00
2018-02-07T22:41:07.800Z,91.00
2018-02-07T22:43:40.582Z,91.00
2018-02-07T22:46:19.495Z,91.00
2018-02-07T22:48:49.974Z,91.00
2018-02-07T22:51:22.327Z,91.00
2018-02-07T22:53:52.891Z,91.00
2018-02-07T22:56:27.387Z,91.00
2018-02-07T22:59:04.274Z,91.00
2018-02-07T23:01:42.702Z,91.10
2018-02-07T23:04:16.619Z,91.10
2018-02-07T23:06:48.815Z,91.10
2018-02-07T23:09:17.019Z,91.10
2018-02-07T23:11:47.763Z,91.10
2018-02-07T23:14:18.779Z,91.10
2018-02-07T23:16:48.611Z,91.20
2018-02-07T23:19:24.187Z,91.20
2018-02-07T23:22:04.181Z,91.20
2018-02-07T23:24:32.274Z,91.20
2018-02-07T23:27:17.686Z,91.20
2018-02-07T23:29:49.478Z,91.20
2018-02-07T23:32:21.258Z,91.20
2018-02-07T23:34:50.143Z,91.20
2018-02-07T23:37:19.755Z,91.50
2018-02-07T23:39:47.815Z,91.30
2018-02-07T23:42:16.997Z,91.40
2018-02-07T23:44:45.063Z,91.30
2018-02-07T23:47:14.894Z,91.40
2018-02-07T23:49:43.127Z,91.40
2018-02-07T23:52:15.270Z,91.40
2018-02-07T23:54:43.542Z,91.60
2018-02-07T23:57:15.086Z,91.70
2018-02-07T23:59:48.591Z,91.80
